Terminal Aerodrome Forecast
Issued by NWS

Home | Current Version | Previous Version | Text Only | Print | Product List | Glossary On
Versions: 1 2 3 4 5 6 7 8 9 10
000
FTUS42 KTAE 290200 AAA
TAFABY
TAF AMD
KABY 290235Z 2903/2924 20007KT P6SM BKN028 OVC100
     FM290500 22003KT 4SM BR SCT007 BKN020
     FM291600 30005KT P6SM VCSH BKN025=

USA.gov is the U.S. government's official web portal to all federal, state and local government web resources and services.